Barfleur — FNIE — position and weather

sailwx.info

Track history (hours):
 
Tides and Currents Weather Stations Pressure Air Temp Water Temp Dewpoint Dewpoint Depression Visibility Wind Speed Wind Dir Waves Ship Positions

Barfleur

Operator: Brittany Ferries

Last reported at 2020-Jan-18 18:00 UTC. Time now 2020-Jan-18 19:52 UTC.
Position N 49°46' W 001°37'.

Length 158 m; draft 5 m.

Type: Ship. MMSI: 227289000.

Date/timePositionNaut miles runAvg speedWind from/ knotsBaromVisibWave heightAir tempDewpointWater temp
2020-Jan-18 18:00N 49°46' W 001°37'713.9
2020-Jan-18 17:30N 49°39' W 001°37'30 4.3
2020-Jan-18 10:30N 50°08' W 001°46'35 8.8
2020-Jan-18 06:30N 50°42' W 001°59'0 0.0
2020-Jan-18 06:00N 50°42' W 001°59'0 0.0
2020-Jan-18 04:00N 50°42' W 001°59'0 0.0
2020-Jan-18 02:00N 50°42' W 001°59'0 0.0
2020-Jan-18 01:00N 50°42' W 001°59'0 0.0
2020-Jan-18 00:00N 50°42' W 001°59'56 9.3
2020-Jan-17 18:02N 49°48' W 001°41'914.6
2020-Jan-17 17:23N 49°39' W 001°37'21 3.4
2020-Jan-17 11:07N 49°60' W 001°41'4416.7
2020-Jan-17 08:30N 50°42' W 001°58'1 0.7
2020-Jan-17 07:00N 50°42' W 001°59'0 0.0
2020-Jan-17 05:00N 50°42' W 001°59'0 0.0
2020-Jan-17 04:30N 50°42' W 001°59'0 0.0
2020-Jan-17 04:00N 50°42' W 001°59'0 0.0
2020-Jan-17 02:30N 50°42' W 001°59'0 0.0
2020-Jan-17 00:30N 50°42' W 001°59'65 5.5
2020-Jan-16 12:46N 49°39' W 001°37'2 6.3
2020-Jan-16 12:30N 49°40' W 001°38'917.2
2020-Jan-16 11:58N 49°49' W 001°42'1717.0
2020-Jan-16 10:58N 50°06' W 001°45'2517.0
2020-Jan-16 09:30N 50°30' W 001°52'1312.6
2020-Jan-16 08:30N 50°42' W 001°58'54 8.5
2020-Jan-16 02:08N 49°50' W 001°38'5 8.2
2020-Jan-16 01:30N 49°45' W 001°36'3 1.7
2020-Jan-15 23:30N 49°43' W 001°41'2 2.3
2020-Jan-15 22:30N 49°43' W 001°45'7 2.2
2020-Jan-15 19:34N 49°39' W 001°37'3 0.4
2020-Jan-15 12:30N 49°42' W 001°35'5317.8
2020-Jan-15 09:30N 50°34' W 001°53'9 9.1
2020-Jan-15 08:29N 50°42' W 001°59'0 0.0
2020-Jan-15 04:59N 50°42' W 001°59'0 0.0
2020-Jan-15 03:29N 50°42' W 001°59'0 0.0
2020-Jan-15 02:29N 50°42' W 001°59'0 0.0
2020-Jan-15 01:29N 50°42' W 001°59'0 0.0
2020-Jan-14 23:59N 50°42' W 001°59'0 0.0
2020-Jan-14 21:29N 50°42' W 001°59'0 0.0
2020-Jan-14 20:59N 50°42' W 001°59'0 0.0
2020-Jan-14 19:29N 50°42' W 001°59'0 0.0
2020-Jan-14 18:29N 50°42' W 001°59'0 0.0
2020-Jan-14 17:59N 50°42' W 001°59'0 0.0
2020-Jan-14 17:29N 50°42' W 001°59'0 0.0
2020-Jan-14 16:59N 50°42' W 001°59'0 0.0
2020-Jan-14 14:59N 50°42' W 001°59'0 0.0
2020-Jan-14 14:29N 50°42' W 001°59'0 0.0
2020-Jan-14 13:29N 50°42' W 001°59'0 0.0
2020-Jan-14 11:59N 50°42' W 001°59'0 0.0
2020-Jan-14 11:29N 50°42' W 001°59'0 0.0
2020-Jan-14 10:59N 50°42' W 001°59'0 0.0
2020-Jan-14 09:59N 50°42' W 001°59'0 0.0
2020-Jan-14 07:29N 50°42' W 001°59'7 4.9
2020-Jan-14 06:00N 50°36' W 001°53'815.3
2020-Jan-14 05:30N 50°29' W 001°54'4710.4
2020-Jan-14 01:00N 49°43' W 001°40'5 0.4
2020-Jan-13 12:01N 49°47' W 001°42'2017.4
2020-Jan-13 10:52N 50°07' W 001°47'3612.1
2020-Jan-13 07:52N 50°42' W 001°59'0 0.0
2020-Jan-13 06:30N 50°42' W 001°59'0 0.0
2020-Jan-13 05:00N 50°42' W 001°59'0 0.0
2020-Jan-13 04:30N 50°42' W 001°59'0 0.0
2020-Jan-13 04:00N 50°42' W 001°59'0 0.0
2020-Jan-13 03:30N 50°42' W 001°59'0 0.0
2020-Jan-13 02:00N 50°42' W 001°59'0 0.0
2020-Jan-13 01:30N 50°42' W 001°59'0 0.0
2020-Jan-13 00:30N 50°42' W 001°59'56 9.1
2020-Jan-12 18:23N 49°48' W 001°42'9 1.5
2020-Jan-12 12:30N 49°39' W 001°37'1615.4
2020-Jan-12 11:29N 49°55' W 001°41'1818.1
2020-Jan-12 10:29N 50°13' W 001°45'2617.3
2020-Jan-12 09:00N 50°38' W 001°54'510.7
2020-Jan-12 08:30N 50°42' W 001°59'1 0.4
2020-Jan-12 07:00N 50°42' W 001°59'0 0.0
2020-Jan-12 03:00N 50°42' W 001°59'0 0.0
2020-Jan-12 00:57N 50°42' W 001°59'0 0.0
2020-Jan-12 00:00N 50°42' W 001°59'0 0.0
2020-Jan-11 22:57N 50°42' W 001°59'0 0.0
2020-Jan-11 22:30N 50°42' W 001°59'1 0.6
2020-Jan-11 21:30N 50°42' W 001°58'611.3
2020-Jan-11 21:01N 50°38' W 001°54'35 3.5
2020-Jan-11 11:00N 50°03' W 001°44'40 8.9
2020-Jan-11 06:30N 50°42' W 001°59'0 0.0
2020-Jan-11 03:27N 50°42' W 001°59'0 0.0
2020-Jan-11 03:00N 50°42' W 001°59'0 0.0
2020-Jan-11 02:30N 50°42' W 001°59'0 0.0
2020-Jan-11 01:30N 50°42' W 001°59'0 0.0
2020-Jan-11 00:00N 50°42' W 001°59'0 0.0
2020-Jan-10 23:30N 50°42' W 001°59'6510.8
2020-Jan-10 17:29N 49°39' W 001°37'1 0.1
2020-Jan-10 12:30N 49°40' W 001°37'3415.8
2020-Jan-10 10:21N 50°13' W 001°46'3016.2
2020-Jan-10 08:30N 50°42' W 001°58'1 2.5
2020-Jan-10 08:00N 50°42' W 001°59'0 0.0
2020-Jan-10 07:30N 50°42' W 001°59'0 0.0
2020-Jan-10 07:00N 50°42' W 001°59'0 0.0
2020-Jan-10 06:30N 50°42' W 001°59'0 0.0
2020-Jan-10 01:30N 50°42' W 001°59'0 0.0
2020-Jan-10 00:57N 50°42' W 001°59'0 0.0
2020-Jan-09 22:30N 50°42' W 001°59'0 0.0
2020-Jan-09 19:00N 50°42' W 001°59'0 0.0
2020-Jan-09 17:28N 50°42' W 001°59'0 0.0
2020-Jan-09 14:25N 50°42' W 001°59'0 0.0
2020-Jan-09 09:30N 50°42' W 001°59'0 0.0
2020-Jan-09 09:00N 50°42' W 001°59'0 0.0
2020-Jan-09 08:31N 50°42' W 001°59'61 5.3
2020-Jan-08 20:59N 49°42' W 001°40'  
Track history (hours):
 
Tides and Currents Weather Stations Pressure Air Temp Water Temp Dewpoint Dewpoint Depression Visibility Wind Speed Wind Dir Waves Ship Positions

Barfleur

Operator: Brittany Ferries

Last reported at 2020-Jan-18 18:00 UTC. Time now 2020-Jan-18 19:52 UTC.
Position N 49°46' W 001°37'.

Length 158 m; draft 5 m.

Type: Ship. MMSI: 227289000.

Date/timePositionNaut miles runAvg speedWind from/ knotsBaromVisibWave heightAir tempDewpointWater temp
2020-Jan-18 18:00N 49°46' W 001°37'713.9
2020-Jan-18 17:30N 49°39' W 001°37'30 4.3
2020-Jan-18 10:30N 50°08' W 001°46'35 8.8
2020-Jan-18 06:30N 50°42' W 001°59'0 0.0
2020-Jan-18 06:00N 50°42' W 001°59'0 0.0
2020-Jan-18 04:00N 50°42' W 001°59'0 0.0
2020-Jan-18 02:00N 50°42' W 001°59'0 0.0
2020-Jan-18 01:00N 50°42' W 001°59'0 0.0
2020-Jan-18 00:00N 50°42' W 001°59'56 9.3
2020-Jan-17 18:02N 49°48' W 001°41'914.6
2020-Jan-17 17:23N 49°39' W 001°37'21 3.4
2020-Jan-17 11:07N 49°60' W 001°41'4416.7
2020-Jan-17 08:30N 50°42' W 001°58'1 0.7
2020-Jan-17 07:00N 50°42' W 001°59'0 0.0
2020-Jan-17 05:00N 50°42' W 001°59'0 0.0
2020-Jan-17 04:30N 50°42' W 001°59'0 0.0
2020-Jan-17 04:00N 50°42' W 001°59'0 0.0
2020-Jan-17 02:30N 50°42' W 001°59'0 0.0
2020-Jan-17 00:30N 50°42' W 001°59'65 5.5
2020-Jan-16 12:46N 49°39' W 001°37'2 6.3
2020-Jan-16 12:30N 49°40' W 001°38'917.2
2020-Jan-16 11:58N 49°49' W 001°42'1717.0
2020-Jan-16 10:58N 50°06' W 001°45'2517.0
2020-Jan-16 09:30N 50°30' W 001°52'1312.6
2020-Jan-16 08:30N 50°42' W 001°58'54 8.5
2020-Jan-16 02:08N 49°50' W 001°38'5 8.2
2020-Jan-16 01:30N 49°45' W 001°36'3 1.7
2020-Jan-15 23:30N 49°43' W 001°41'2 2.3
2020-Jan-15 22:30N 49°43' W 001°45'7 2.2
2020-Jan-15 19:34N 49°39' W 001°37'3 0.4
2020-Jan-15 12:30N 49°42' W 001°35'5317.8
2020-Jan-15 09:30N 50°34' W 001°53'9 9.1
2020-Jan-15 08:29N 50°42' W 001°59'0 0.0
2020-Jan-15 04:59N 50°42' W 001°59'0 0.0
2020-Jan-15 03:29N 50°42' W 001°59'0 0.0
2020-Jan-15 02:29N 50°42' W 001°59'0 0.0
2020-Jan-15 01:29N 50°42' W 001°59'0 0.0
2020-Jan-14 23:59N 50°42' W 001°59'0 0.0
2020-Jan-14 21:29N 50°42' W 001°59'0 0.0
2020-Jan-14 20:59N 50°42' W 001°59'0 0.0
2020-Jan-14 19:29N 50°42' W 001°59'0 0.0
2020-Jan-14 18:29N 50°42' W 001°59'0 0.0
2020-Jan-14 17:59N 50°42' W 001°59'0 0.0
2020-Jan-14 17:29N 50°42' W 001°59'0 0.0
2020-Jan-14 16:59N 50°42' W 001°59'0 0.0
2020-Jan-14 14:59N 50°42' W 001°59'0 0.0
2020-Jan-14 14:29N 50°42' W 001°59'0 0.0
2020-Jan-14 13:29N 50°42' W 001°59'0 0.0
2020-Jan-14 11:59N 50°42' W 001°59'0 0.0
2020-Jan-14 11:29N 50°42' W 001°59'0 0.0
2020-Jan-14 10:59N 50°42' W 001°59'0 0.0
2020-Jan-14 09:59N 50°42' W 001°59'0 0.0
2020-Jan-14 07:29N 50°42' W 001°59'7 4.9
2020-Jan-14 06:00N 50°36' W 001°53'815.3
2020-Jan-14 05:30N 50°29' W 001°54'4710.4
2020-Jan-14 01:00N 49°43' W 001°40'5 0.4
2020-Jan-13 12:01N 49°47' W 001°42'2017.4
2020-Jan-13 10:52N 50°07' W 001°47'3612.1
2020-Jan-13 07:52N 50°42' W 001°59'0 0.0
2020-Jan-13 06:30N 50°42' W 001°59'0 0.0
2020-Jan-13 05:00N 50°42' W 001°59'0 0.0
2020-Jan-13 04:30N 50°42' W 001°59'0 0.0
2020-Jan-13 04:00N 50°42' W 001°59'0 0.0
2020-Jan-13 03:30N 50°42' W 001°59'0 0.0
2020-Jan-13 02:00N 50°42' W 001°59'0 0.0
2020-Jan-13 01:30N 50°42' W 001°59'0 0.0
2020-Jan-13 00:30N 50°42' W 001°59'56 9.1
2020-Jan-12 18:23N 49°48' W 001°42'9 1.5
2020-Jan-12 12:30N 49°39' W 001°37'1615.4
2020-Jan-12 11:29N 49°55' W 001°41'1818.1
2020-Jan-12 10:29N 50°13' W 001°45'2617.3
2020-Jan-12 09:00N 50°38' W 001°54'510.7
2020-Jan-12 08:30N 50°42' W 001°59'1 0.4
2020-Jan-12 07:00N 50°42' W 001°59'0 0.0
2020-Jan-12 03:00N 50°42' W 001°59'0 0.0
2020-Jan-12 00:57N 50°42' W 001°59'0 0.0
2020-Jan-12 00:00N 50°42' W 001°59'0 0.0
2020-Jan-11 22:57N 50°42' W 001°59'0 0.0
2020-Jan-11 22:30N 50°42' W 001°59'1 0.6
2020-Jan-11 21:30N 50°42' W 001°58'611.3
2020-Jan-11 21:01N 50°38' W 001°54'35 3.5
2020-Jan-11 11:00N 50°03' W 001°44'40 8.9
2020-Jan-11 06:30N 50°42' W 001°59'0 0.0
2020-Jan-11 03:27N 50°42' W 001°59'0 0.0
2020-Jan-11 03:00N 50°42' W 001°59'0 0.0
2020-Jan-11 02:30N 50°42' W 001°59'0 0.0
2020-Jan-11 01:30N 50°42' W 001°59'0 0.0
2020-Jan-11 00:00N 50°42' W 001°59'0 0.0
2020-Jan-10 23:30N 50°42' W 001°59'6510.8
2020-Jan-10 17:29N 49°39' W 001°37'1 0.1
2020-Jan-10 12:30N 49°40' W 001°37'3415.8
2020-Jan-10 10:21N 50°13' W 001°46'3016.2
2020-Jan-10 08:30N 50°42' W 001°58'1 2.5
2020-Jan-10 08:00N 50°42' W 001°59'0 0.0
2020-Jan-10 07:30N 50°42' W 001°59'0 0.0
2020-Jan-10 07:00N 50°42' W 001°59'0 0.0
2020-Jan-10 06:30N 50°42' W 001°59'0 0.0
2020-Jan-10 01:30N 50°42' W 001°59'0 0.0
2020-Jan-10 00:57N 50°42' W 001°59'0 0.0
2020-Jan-09 22:30N 50°42' W 001°59'0 0.0
2020-Jan-09 19:00N 50°42' W 001°59'0 0.0
2020-Jan-09 17:28N 50°42' W 001°59'0 0.0
2020-Jan-09 14:25N 50°42' W 001°59'0 0.0
2020-Jan-09 09:30N 50°42' W 001°59'0 0.0
2020-Jan-09 09:00N 50°42' W 001°59'0 0.0
2020-Jan-09 08:31N 50°42' W 001°59'61 5.3
2020-Jan-08 20:59N 49°42' W 001°40'  

Dump ship's entire track history